Time;durP1;ratioP1;P1;durP2;ratioP2;P2;SDS_P1;SDS_P2;PMS_P1;PMS_P2;Temp;Humidity;BMP_temperature;BMP_pressure;BME280_temperature;BME280_humidity;BME280_pressure;Samples;Min_cycle;Max_cycle;Signal;HPM_P1;HPM_P2
2023/09/13 00:02:19;;;;;;;7.10;6.20;;;19.20;1.00;;;;;;5077196;28;20477;-85
2023/09/13 00:04:45;;;;;;;6.97;6.28;;;19.20;1.00;;;;;;5047237;28;20389;-85
2023/09/13 00:07:11;;;;;;;6.80;5.80;;;18.90;1.00;;;;;;5043119;28;20762;-85
2023/09/13 00:09:41;;;;;;;6.95;6.15;;;19.00;1.00;;;;;;5035556;28;20401;-85
2023/09/13 00:12:07;;;;;;;7.25;6.30;;;19.00;1.00;;;;;;5053604;28;20392;-85
2023/09/13 00:14:32;;;;;;;7.15;6.47;;;19.30;1.00;;;;;;5035765;28;20392;-85
2023/09/13 00:16:59;;;;;;;7.00;6.10;;;18.80;1.00;;;;;;5053748;28;20446;-85
2023/09/13 00:19:27;;;;;;;7.13;6.50;;;18.50;1.00;;;;;;5035465;28;20393;-85
2023/09/13 00:21:53;;;;;;;6.10;5.47;;;20.00;1.00;;;;;;5035482;28;20527;-85
2023/09/13 00:24:19;;;;;;;5.72;5.22;;;18.50;1.00;;;;;;5035577;28;20757;-85
2023/09/13 00:26:44;;;;;;;5.47;4.97;;;18.50;1.00;;;;;;5035568;28;20412;-85
2023/09/13 00:29:10;;;;;;;8.30;6.40;;;20.70;1.00;;;;;;5035427;28;20389;-85
2023/09/13 00:31:35;;;;;;;6.67;6.07;;;18.30;1.00;;;;;;5054177;28;20381;-85
2023/09/13 00:34:01;;;;;;;6.97;6.30;;;18.90;1.00;;;;;;5055520;28;20485;-85
2023/09/13 00:36:26;;;;;;;7.22;6.45;;;18.40;1.00;;;;;;5055139;28;20384;-85
2023/09/13 00:38:52;;;;;;;8.30;7.20;;;20.20;1.00;;;;;;5054918;28;21057;-85
2023/09/13 00:41:17;;;;;;;9.13;7.43;;;18.70;1.00;;;;;;5051201;28;20402;-85
2023/09/13 00:43:43;;;;;;;7.50;6.90;;;18.40;1.00;;;;;;5073126;28;20387;-85
2023/09/13 00:46:10;;;;;;;7.60;6.90;;;19.10;1.00;;;;;;5054850;28;20422;-86
2023/09/13 00:48:35;;;;;;;7.37;6.70;;;18.30;1.00;;;;;;5054899;28;20376;-85
2023/09/13 00:51:02;;;;;;;6.83;6.30;;;18.70;1.00;;;;;;5047656;28;20407;-86
2023/09/13 00:53:28;;;;;;;6.90;6.30;;;18.50;1.00;;;;;;5035077;28;20420;-86
2023/09/13 00:55:55;;;;;;;7.65;6.95;;;19.40;1.00;;;;;;5034770;28;20481;-86
2023/09/13 00:58:20;;;;;;;7.55;6.45;;;19.40;1.00;;;;;;5038773;28;20394;-84
2023/09/13 01:00:48;;;;;;;6.57;5.50;;;18.90;1.00;;;;;;5054582;28;20938;-84
2023/09/13 01:03:15;;;;;;;5.95;5.32;;;20.50;1.00;;;;;;5079494;28;20384;-84
2023/09/13 01:05:41;;;;;;;6.88;6.28;;;18.40;1.00;;;;;;5080720;28;20447;-84
2023/09/13 01:08:07;;;;;;;7.83;7.07;;;20.10;1.00;;;;;;5078708;28;20431;-84
2023/09/13 01:10:33;;;;;;;8.33;7.43;;;19.00;1.00;;;;;;5114567;23;20481;-86
2023/09/13 01:12:58;;;;;;;9.05;7.75;;;19.10;1.00;;;;;;5096314;28;20371;-86
2023/09/13 01:15:30;;;;;;;7.50;6.80;;;19.10;1.00;;;;;;5092998;28;20388;-87
2023/09/13 01:18:09;;;;;;;7.30;6.60;;;19.00;1.00;;;;;;5094496;28;20379;-86
2023/09/13 01:20:54;;;;;;;7.60;6.70;;;19.10;1.00;;;;;;5091167;28;20865;-87
2023/09/13 01:23:44;;;;;;;6.72;6.22;;;19.10;1.00;;;;;;5077619;28;20877;-87
2023/09/13 01:26:37;;;;;;;6.97;6.28;;;19.70;1.00;;;;;;5077820;28;20901;-87
2023/09/13 01:29:04;;;;;;;6.40;5.80;;;19.00;1.00;;;;;;5076106;28;20433;-87
2023/09/13 01:31:31;;;;;;;5.60;5.10;;;16.90;1.00;;;;;;5076086;28;20504;-87
2023/09/13 01:33:56;;;;;;;6.20;5.70;;;17.70;1.00;;;;;;5116862;28;20380;-87
2023/09/13 01:36:22;;;;;;;6.45;5.95;;;18.80;1.00;;;;;;5082698;28;20725;-88
2023/09/13 01:38:47;;;;;;;6.40;5.80;;;18.20;1.00;;;;;;5093898;28;20390;-87
2023/09/13 01:41:19;;;;;;;6.15;5.55;;;18.90;1.00;;;;;;5093866;28;20432;-88
2023/09/13 01:43:46;;;;;;;6.50;5.90;;;18.70;1.00;;;;;;5092444;28;20390;-87
2023/09/13 01:46:13;;;;;;;5.88;5.38;;;18.80;1.00;;;;;;5099854;28;20398;-87
2023/09/13 01:48:39;;;;;;;6.30;5.70;;;21.00;1.00;;;;;;5118029;28;20390;-87
2023/09/13 01:51:06;;;;;;;5.90;5.40;;;20.40;1.00;;;;;;5099910;28;20407;-87
2023/09/13 01:53:31;;;;;;;7.60;6.20;;;18.80;1.00;;;;;;5100375;28;20449;-87
2023/09/13 01:55:57;;;;;;;6.43;5.82;;;18.70;1.00;;;;;;5117580;28;20400;-87
2023/09/13 01:58:22;;;;;;;7.93;6.97;;;18.60;1.00;;;;;;5089542;27;20402;-87
2023/09/13 02:00:48;;;;;;;6.83;6.13;;;18.80;1.00;;;;;;5093105;28;20381;-87
2023/09/13 02:03:14;;;;;;;6.82;6.22;;;18.50;1.00;;;;;;5075732;28;20528;-87
2023/09/13 02:05:39;;;;;;;7.10;6.50;;;18.20;1.00;;;;;;5075563;28;20394;-87
2023/09/13 02:08:05;;;;;;;6.90;6.30;;;18.40;1.00;;;;;;5093541;28;20406;-87
2023/09/13 02:10:30;;;;;;;6.13;5.53;;;18.70;1.00;;;;;;5099425;28;20409;-88
2023/09/13 02:12:58;;;;;;;7.10;6.40;;;18.60;1.00;;;;;;5117346;28;20385;-87
2023/09/13 02:15:24;;;;;;;7.30;6.60;;;18.70;1.00;;;;;;5103684;27;20443;-87
2023/09/13 02:17:49;;;;;;;7.43;6.82;;;18.60;1.00;;;;;;5113989;28;20385;-87
2023/09/13 02:20:15;;;;;;;7.83;6.20;;;18.70;1.00;;;;;;5083073;28;20405;-87
2023/09/13 02:22:40;;;;;;;7.60;6.30;;;18.80;1.00;;;;;;5093314;28;20390;-87
2023/09/13 02:25:06;;;;;;;6.83;6.00;;;21.40;1.00;;;;;;5075055;28;20389;-88
2023/09/13 02:27:32;;;;;;;7.30;5.90;;;18.60;1.00;;;;;;5093154;28;20893;-88
2023/09/13 02:29:58;;;;;;;6.93;6.30;;;19.50;1.00;;;;;;5093577;28;20892;-88
2023/09/13 02:32:24;;;;;;;8.83;5.90;;;21.40;1.00;;;;;;5076729;28;20555;-87
2023/09/13 02:34:49;;;;;;;5.75;5.15;;;18.80;1.00;;;;;;5077211;28;20486;-87
2023/09/13 02:37:15;;;;;;;6.70;6.00;;;21.70;1.00;;;;;;5075614;28;20416;-88
2023/09/13 02:39:42;;;;;;;6.35;5.50;;;18.50;1.00;;;;;;5075186;28;20899;-87
2023/09/13 02:42:08;;;;;;;6.38;5.78;;;16.70;1.00;;;;;;5094364;28;20880;-88
2023/09/13 02:44:34;;;;;;;6.57;5.97;;;17.90;1.00;;;;;;5094778;28;20392;-88
2023/09/13 02:47:01;;;;;;;6.88;6.18;;;17.70;1.00;;;;;;5107058;28;20432;-88
2023/09/13 02:49:27;;;;;;;6.72;6.13;;;18.80;1.00;;;;;;5119491;28;20380;-88
2023/09/13 02:51:53;;;;;;;7.72;5.70;;;18.60;1.00;;;;;;5118972;28;20373;-88
2023/09/13 02:54:22;;;;;;;7.88;5.68;;;18.70;1.00;;;;;;5084659;28;20409;-88
2023/09/13 02:56:55;;;;;;;7.88;5.65;;;18.60;1.00;;;;;;5076400;28;20477;-87
2023/09/13 02:59:20;;;;;;;6.80;6.10;;;18.60;1.00;;;;;;5077650;28;20389;-88
2023/09/13 03:01:46;;;;;;;7.50;6.80;;;18.60;1.00;;;;;;5094268;28;20393;-88
2023/09/13 03:04:11;;;;;;;7.77;7.13;;;17.20;1.00;;;;;;5087872;28;20388;-88
2023/09/13 03:06:40;;;;;;;7.70;6.20;;;18.50;1.00;;;;;;5111513;28;20887;-87
2023/09/13 03:09:06;;;;;;;7.33;6.30;;;18.70;1.00;;;;;;5076748;28;20885;-87
2023/09/13 03:11:31;;;;;;;7.50;5.90;;;18.80;1.00;;;;;;5077012;28;20432;-86
2023/09/13 03:13:57;;;;;;;6.20;5.60;;;17.30;1.00;;;;;;5078572;28;20385;-89
2023/09/13 03:16:23;;;;;;;6.80;6.20;;;18.60;1.00;;;;;;5095224;28;20411;-87
2023/09/13 03:18:50;;;;;;;7.33;6.70;;;21.50;1.00;;;;;;5135507;27;20384;-87
2023/09/13 03:21:20;;;;;;;6.53;5.50;;;18.90;1.00;;;;;;5121140;27;20378;-87
2023/09/13 03:23:48;;;;;;;7.22;6.53;;;21.60;1.00;;;;;;5114252;27;20447;-87
2023/09/13 03:26:23;;;;;;;6.60;6.00;;;22.00;1.00;;;;;;5136287;27;20404;-88
2023/09/13 03:28:56;;;;;;;6.00;5.50;;;17.90;1.00;;;;;;5117987;28;20376;-88
2023/09/13 03:31:27;;;;;;;6.78;6.18;;;18.60;1.00;;;;;;5112568;28;20424;-87
2023/09/13 03:33:54;;;;;;;6.93;6.23;;;18.60;1.00;;;;;;5098444;28;20469;-87
2023/09/13 03:36:21;;;;;;;6.07;5.47;;;19.20;1.00;;;;;;5106730;28;21188;-88
2023/09/13 03:38:47;;;;;;;6.78;6.18;;;18.40;1.00;;;;;;5114018;28;21008;-88
2023/09/13 03:41:15;;;;;;;6.35;5.28;;;20.60;1.00;;;;;;5094826;28;20887;-88
2023/09/13 03:43:41;;;;;;;6.90;6.20;;;17.00;1.00;;;;;;5095413;28;20423;-88
2023/09/13 03:46:07;;;;;;;5.85;5.30;;;18.60;1.00;;;;;;5113130;28;20404;-88
2023/09/13 03:48:35;;;;;;;7.07;5.50;;;19.10;1.00;;;;;;5106045;28;20385;-89
2023/09/13 03:51:00;;;;;;;6.10;5.50;;;20.50;1.00;;;;;;5103097;28;20392;-88
2023/09/13 03:53:26;;;;;;;6.30;4.70;;;17.30;1.00;;;;;;5102278;28;20386;-88
2023/09/13 03:55:52;;;;;;;5.40;4.60;;;18.20;1.00;;;;;;5074977;28;20382;-88
2023/09/13 03:58:18;;;;;;;4.97;4.57;;;18.20;1.00;;;;;;5092855;28;20378;-88
2023/09/13 04:00:51;;;;;;;5.83;5.23;;;18.30;1.00;;;;;;5074381;28;20878;-88
2023/09/13 04:03:18;;;;;;;5.75;5.25;;;18.30;1.00;;;;;;5111432;27;20460;-88
2023/09/13 04:05:43;;;;;;;5.75;5.25;;;18.20;1.00;;;;;;5119471;27;20443;-89
2023/09/13 04:08:09;;;;;;;5.63;5.20;;;17.10;1.00;;;;;;5109942;27;20421;-88
2023/09/13 04:10:35;;;;;;;5.50;4.97;;;20.70;1.00;;;;;;5086148;28;20405;-88
2023/09/13 04:13:03;;;;;;;5.90;5.30;;;18.20;1.00;;;;;;5093124;28;20443;-88
2023/09/13 04:15:29;;;;;;;5.35;4.95;;;18.30;1.00;;;;;;5074503;28;20473;-89
2023/09/13 04:17:55;;;;;;;7.30;5.70;;;18.20;1.00;;;;;;5074720;28;20425;-88
2023/09/13 04:20:21;;;;;;;6.68;5.50;;;18.20;1.00;;;;;;5077262;28;20406;-88
2023/09/13 04:22:47;;;;;;;7.03;5.70;;;18.20;1.00;;;;;;5100245;28;20749;-88
2023/09/13 04:25:12;;;;;;;5.80;5.30;;;18.10;1.00;;;;;;5083747;28;20386;-88
2023/09/13 04:27:41;;;;;;;6.03;5.53;;;17.20;1.00;;;;;;5113267;28;20440;-88
2023/09/13 04:30:08;;;;;;;6.20;5.20;;;18.20;1.00;;;;;;5112147;28;20382;-88
2023/09/13 04:32:34;;;;;;;6.28;5.68;;;18.30;1.00;;;;;;5089547;28;20440;-88
2023/09/13 04:35:00;;;;;;;6.38;5.78;;;18.30;1.00;;;;;;5079154;28;20371;-88
2023/09/13 04:37:26;;;;;;;6.57;5.97;;;18.20;1.00;;;;;;5079713;28;21005;-88
2023/09/13 04:39:51;;;;;;;7.27;6.57;;;17.20;1.00;;;;;;5079538;28;20378;-87
2023/09/13 04:42:17;;;;;;;6.45;5.85;;;18.20;1.00;;;;;;5078021;28;20878;-87
2023/09/13 04:44:42;;;;;;;7.70;6.90;;;19.90;1.00;;;;;;5078026;28;20406;-88
2023/09/13 04:47:08;;;;;;;7.13;6.40;;;16.30;1.00;;;;;;5096207;28;20838;-88
2023/09/13 04:49:36;;;;;;;6.95;6.25;;;17.80;1.00;;;;;;5095790;28;20407;-89
2023/09/13 04:52:02;;;;;;;6.80;6.20;;;20.00;1.00;;;;;;5077498;28;20877;-88
2023/09/13 04:54:28;;;;;;;6.23;5.60;;;18.40;1.00;;;;;;5078646;28;20389;-88
2023/09/13 04:56:57;;;;;;;6.03;5.53;;;18.30;1.00;;;;;;5113880;28;20732;-88
2023/09/13 04:59:42;;;;;;;6.55;5.90;;;18.20;1.00;;;;;;5116949;28;20388;-88
2023/09/13 05:02:08;;;;;;;7.40;6.70;;;18.20;1.00;;;;;;5097210;28;20888;-88
2023/09/13 05:04:34;;;;;;;7.55;6.22;;;18.20;1.00;;;;;;5104517;28;20382;-89
2023/09/13 05:07:00;;;;;;;5.90;5.40;;;18.40;1.00;;;;;;5097212;28;20457;-88
2023/09/13 05:09:25;;;;;;;6.70;6.00;;;18.50;1.00;;;;;;5098142;28;20485;-88
2023/09/13 05:11:51;;;;;;;6.35;5.75;;;18.30;1.00;;;;;;5100083;28;20385;-87
2023/09/13 05:14:16;;;;;;;6.07;5.50;;;18.30;1.00;;;;;;5077596;28;20397;-87
2023/09/13 05:16:42;;;;;;;6.82;6.13;;;20.80;1.00;;;;;;5082521;28;20390;-88
2023/09/13 05:19:07;;;;;;;10.83;6.20;;;17.00;1.00;;;;;;5076601;28;20397;-87
2023/09/13 05:21:34;;;;;;;7.28;6.00;;;18.70;1.00;;;;;;5076900;28;20378;-87
2023/09/13 05:24:02;;;;;;;7.20;6.40;;;18.40;1.00;;;;;;5077801;28;20494;-87
2023/09/13 05:26:28;;;;;;;6.43;5.93;;;18.50;1.00;;;;;;5078902;28;20399;-88
2023/09/13 05:28:56;;;;;;;7.47;6.68;;;18.40;1.00;;;;;;5077091;28;20420;-87
2023/09/13 05:31:22;;;;;;;6.53;5.93;;;18.50;1.00;;;;;;5096370;28;20417;-86
2023/09/13 05:33:47;;;;;;;6.47;5.90;;;18.30;1.00;;;;;;5097093;28;20749;-86
2023/09/13 05:36:14;;;;;;;7.07;5.68;;;18.10;1.00;;;;;;5078665;28;20769;-87
2023/09/13 05:38:40;;;;;;;7.00;6.30;;;21.50;1.00;;;;;;5096964;28;20383;-88
2023/09/13 05:41:09;;;;;;;6.63;6.03;;;18.00;1.00;;;;;;5106683;27;20378;-87
2023/09/13 05:43:36;;;;;;;6.95;6.28;;;20.80;1.00;;;;;;5099457;27;20438;-86
2023/09/13 05:46:04;;;;;;;6.33;5.80;;;16.50;1.00;;;;;;5101345;28;20401;-87
2023/09/13 05:48:30;;;;;;;6.65;6.05;;;18.50;1.00;;;;;;5118883;28;20390;-87
2023/09/13 05:50:56;;;;;;;6.20;5.60;;;19.90;1.00;;;;;;5117906;27;20393;-86
2023/09/13 05:53:22;;;;;;;6.65;6.05;;;17.50;1.00;;;;;;5116136;27;20390;-86
2023/09/13 05:55:48;;;;;;;8.73;7.93;;;17.40;1.00;;;;;;5093379;27;20426;-88
2023/09/13 05:58:14;;;;;;;11.23;8.88;;;17.20;1.00;;;;;;5101599;28;20527;-88
2023/09/13 06:00:45;;;;;;;11.33;10.13;;;18.00;1.00;;;;;;5080899;28;20440;-87
2023/09/13 06:03:11;;;;;;;7.88;7.18;;;19.60;1.00;;;;;;5075552;28;20479;-88
2023/09/13 06:05:36;;;;;;;7.23;6.53;;;17.50;1.00;;;;;;5075982;28;20421;-87
2023/09/13 06:08:02;;;;;;;7.90;6.83;;;17.60;1.00;;;;;;5075562;28;20409;-87
2023/09/13 06:10:28;;;;;;;7.40;6.80;;;18.70;1.00;;;;;;5088909;28;20392;-88
2023/09/13 06:12:53;;;;;;;6.90;6.00;;;18.80;1.00;;;;;;5094094;28;20405;-88
2023/09/13 06:15:19;;;;;;;6.97;6.37;;;18.30;1.00;;;;;;5097807;28;20382;-88
2023/09/13 06:17:44;;;;;;;6.75;6.15;;;20.60;1.00;;;;;;5083764;28;20366;-87
2023/09/13 06:20:11;;;;;;;6.70;6.10;;;18.30;1.00;;;;;;5118038;28;20390;-87
2023/09/13 06:22:37;;;;;;;7.00;6.30;;;18.50;1.00;;;;;;5076604;28;20452;-89
2023/09/13 06:25:03;;;;;;;7.57;6.72;;;18.60;1.00;;;;;;5075606;28;20758;-88
2023/09/13 06:27:29;;;;;;;8.05;7.25;;;18.60;1.00;;;;;;5111515;28;20407;-88
2023/09/13 06:29:56;;;;;;;7.60;6.90;;;18.60;1.00;;;;;;5117188;28;20387;-88
2023/09/13 06:32:23;;;;;;;7.38;6.68;;;18.50;1.00;;;;;;5112058;28;20403;-88
2023/09/13 06:34:48;;;;;;;7.07;6.53;;;18.20;1.00;;;;;;5112678;28;20786;-88
2023/09/13 06:37:15;;;;;;;7.30;6.70;;;18.70;1.00;;;;;;5117601;28;20390;-89
2023/09/13 06:39:40;;;;;;;7.50;6.90;;;16.70;1.00;;;;;;5100785;28;20385;-88
2023/09/13 06:42:06;;;;;;;8.27;7.23;;;19.90;1.00;;;;;;5076743;28;20936;-88
2023/09/13 06:44:32;;;;;;;7.75;7.00;;;18.70;1.00;;;;;;5107610;28;20387;-88
2023/09/13 06:46:58;;;;;;;6.50;6.00;;;18.10;1.00;;;;;;5118056;28;20400;-87
2023/09/13 06:49:24;;;;;;;7.17;6.20;;;18.80;1.00;;;;;;5117994;28;20397;-90
2023/09/13 06:51:50;;;;;;;7.57;6.87;;;18.90;1.00;;;;;;5109700;28;20381;-88
2023/09/13 06:54:16;;;;;;;7.90;7.10;;;22.40;1.00;;;;;;5076156;28;20393;-88
2023/09/13 06:56:42;;;;;;;7.43;6.73;;;17.50;1.00;;;;;;5091399;28;20903;-88
2023/09/13 06:59:08;;;;;;;7.20;6.60;;;18.70;1.00;;;;;;5113212;28;20892;-88
2023/09/13 07:01:33;;;;;;;7.47;6.63;;;18.80;1.00;;;;;;5113106;28;20384;-88
2023/09/13 07:03:59;;;;;;;7.63;6.93;;;18.60;1.00;;;;;;5094713;28;20419;-88
2023/09/13 07:06:24;;;;;;;7.10;6.50;;;18.70;1.00;;;;;;5098866;28;20445;-88
2023/09/13 07:11:22;;;;;;;7.60;6.20;;;19.10;1.00;;;;;;5011262;28;20467;-85
2023/09/13 07:13:48;;;;;;;6.90;6.30;;;20.20;1.00;;;;;;5014695;28;20427;-84
2023/09/13 07:16:17;;;;;;;7.03;6.32;;;20.50;1.00;;;;;;5021888;28;20890;-85
2023/09/13 07:18:45;;;;;;;7.18;6.47;;;19.30;1.00;;;;;;5036613;28;20921;-85
2023/09/13 07:21:15;;;;;;;6.82;6.13;;;19.30;1.00;;;;;;5023200;28;20453;-84
2023/09/13 07:23:43;;;;;;;6.28;5.53;;;17.80;1.00;;;;;;5013352;28;20416;-84
2023/09/13 07:26:12;;;;;;;6.32;5.60;;;19.90;1.00;;;;;;5022137;28;20743;-84
2023/09/13 07:29:00;;;;;;;5.40;4.90;;;20.50;1.00;;;;;;5033602;28;20384;-84
2023/09/13 07:31:28;;;;;;;6.32;5.72;;;22.30;1.00;;;;;;5030657;28;20391;-84
2023/09/13 07:34:02;;;;;;;7.25;6.32;;;22.90;1.00;;;;;;5013254;28;20380;-87
2023/09/13 07:36:34;;;;;;;5.88;5.38;;;21.80;1.00;;;;;;5014650;28;20388;-83
2023/09/13 07:39:03;;;;;;;6.20;5.60;;;20.50;1.00;;;;;;5012966;28;20385;-84
2023/09/13 07:41:28;;;;;;;5.27;4.87;;;19.90;1.00;;;;;;5013509;28;20524;-84
2023/09/13 07:43:54;;;;;;;4.28;3.90;;;19.20;1.00;;;;;;5034654;28;20475;-84
2023/09/13 07:46:21;;;;;;;4.53;4.13;;;20.10;1.00;;;;;;5056076;28;20486;-86
2023/09/13 07:48:46;;;;;;;4.68;3.95;;;20.40;1.00;;;;;;5037626;28;20424;-84
2023/09/13 07:51:12;;;;;;;4.63;4.22;;;20.60;1.00;;;;;;5014856;28;20405;-85
2023/09/13 07:53:37;;;;;;;4.67;3.40;;;20.10;1.00;;;;;;5011688;28;20442;-85
2023/09/13 07:56:03;;;;;;;3.70;3.40;;;20.70;1.00;;;;;;5012960;28;20418;-84
2023/09/13 07:58:28;;;;;;;4.23;3.83;;;20.60;1.00;;;;;;5013760;28;20458;-85
2023/09/13 08:00:55;;;;;;;3.88;3.58;;;20.60;1.00;;;;;;5013041;28;20419;-83
2023/09/13 08:03:20;;;;;;;2.55;2.35;;;20.30;1.00;;;;;;5014665;28;20884;-85
2023/09/13 08:05:47;;;;;;;3.57;2.53;;;21.00;1.00;;;;;;5012806;28;20414;-83
2023/09/13 08:08:22;;;;;;;2.70;2.20;;;20.30;1.00;;;;;;5017446;28;20408;-84
2023/09/13 08:10:49;;;;;;;2.53;2.30;;;20.80;1.00;;;;;;5017397;28;20405;-84
2023/09/13 08:13:15;;;;;;;2.97;2.25;;;20.70;1.00;;;;;;5019035;28;20474;-84
2023/09/13 08:15:40;;;;;;;4.32;2.65;;;20.80;1.00;;;;;;5016691;28;20401;-83
2023/09/13 08:18:06;;;;;;;2.10;1.90;;;20.80;1.00;;;;;;5016166;28;20772;-85
2023/09/13 08:20:32;;;;;;;2.23;2.10;;;20.70;1.00;;;;;;5018752;28;20498;-83
2023/09/13 08:22:57;;;;;;;2.92;2.00;;;20.90;1.00;;;;;;5022548;28;20742;-84
2023/09/13 08:25:23;;;;;;;1.90;1.80;;;20.50;1.00;;;;;;5042653;28;20810;-84
2023/09/13 08:27:50;;;;;;;1.80;1.60;;;21.10;1.00;;;;;;5026072;28;20411;-84
2023/09/13 08:30:16;;;;;;;2.75;1.70;;;21.10;1.00;;;;;;5018473;28;20385;-85
2023/09/13 08:32:41;;;;;;;2.00;1.80;;;21.20;1.00;;;;;;5017940;28;20884;-84
2023/09/13 08:35:07;;;;;;;1.57;1.47;;;20.70;1.00;;;;;;5018077;28;20501;-84
2023/09/13 08:37:33;;;;;;;1.60;1.50;;;21.10;1.00;;;;;;5028262;28;20411;-84
2023/09/13 08:39:58;;;;;;;2.27;1.83;;;21.80;1.00;;;;;;5044732;28;20410;-84
2023/09/13 08:42:25;;;;;;;1.80;1.30;;;21.20;1.00;;;;;;5038539;28;20402;-84
2023/09/13 08:44:52;;;;;;;1.73;1.60;;;21.30;1.00;;;;;;5017620;28;20397;-84
2023/09/13 08:47:18;;;;;;;2.60;1.50;;;22.00;1.00;;;;;;5019857;28;20444;-85
2023/09/13 08:49:46;;;;;;;2.60;1.60;;;20.90;1.00;;;;;;5020001;28;20786;-85
2023/09/13 08:52:11;;;;;;;1.40;1.30;;;20.80;1.00;;;;;;5016507;28;20389;-86
2023/09/13 08:54:38;;;;;;;1.43;1.33;;;21.70;1.00;;;;;;5034404;28;20387;-84
2023/09/13 08:57:04;;;;;;;1.50;1.40;;;21.30;1.00;;;;;;5030339;28;20400;-84
2023/09/13 08:59:30;;;;;;;1.30;1.20;;;21.40;1.00;;;;;;5018105;28;20507;-85
2023/09/13 09:01:57;;;;;;;1.37;1.27;;;21.40;1.00;;;;;;5018176;28;20388;-86
2023/09/13 09:04:22;;;;;;;1.63;1.30;;;21.50;1.00;;;;;;5016548;28;20395;-84
2023/09/13 09:06:48;;;;;;;2.00;1.20;;;21.60;1.00;;;;;;5017944;28;21047;-85
2023/09/13 09:09:17;;;;;;;1.30;1.20;;;21.70;1.00;;;;;;5036423;28;20919;-85
2023/09/13 09:11:47;;;;;;;1.77;1.40;;;21.70;1.00;;;;;;5038307;28;20417;-85
2023/09/13 09:14:14;;;;;;;1.40;1.10;;;20.70;1.00;;;;;;5041211;28;20982;-85
2023/09/13 09:16:42;;;;;;;1.30;1.20;;;22.70;1.00;;;;;;5027266;28;20409;-84
2023/09/13 09:19:08;;;;;;;1.20;1.10;;;22.10;1.00;;;;;;5016442;28;20389;-84
2023/09/13 09:21:37;;;;;;;1.50;1.30;;;21.70;1.00;;;;;;5015994;28;20437;-85
2023/09/13 09:24:03;;;;;;;1.83;1.30;;;21.50;1.00;;;;;;5017899;28;20393;-84
2023/09/13 09:26:29;;;;;;;2.00;1.33;;;21.90;1.00;;;;;;5033733;28;20520;-84
2023/09/13 09:28:54;;;;;;;2.47;1.58;;;22.60;1.00;;;;;;5017004;28;20458;-84
2023/09/13 09:31:25;;;;;;;2.30;1.40;;;22.10;1.00;;;;;;5014889;28;20389;-84
2023/09/13 09:34:03;;;;;;;1.35;1.25;;;21.80;1.00;;;;;;5035475;28;20770;-83
2023/09/13 09:36:34;;;;;;;1.70;1.58;;;21.10;1.00;;;;;;5037088;28;20421;-84
2023/09/13 09:39:01;;;;;;;1.60;1.40;;;21.60;1.00;;;;;;5037536;28;20449;-85
2023/09/13 09:41:35;;;;;;;1.33;1.23;;;22.30;1.00;;;;;;5037571;28;20763;-83
2023/09/13 09:44:00;;;;;;;1.65;1.30;;;23.00;1.00;;;;;;5021116;28;20776;-84
2023/09/13 09:46:26;;;;;;;1.60;1.50;;;22.80;1.00;;;;;;5023122;28;20407;-84
2023/09/13 09:48:52;;;;;;;1.55;1.45;;;22.00;1.00;;;;;;5036961;28;20922;-83
2023/09/13 09:51:19;;;;;;;1.75;1.50;;;21.40;1.00;;;;;;5038082;28;20391;-85
2023/09/13 09:53:45;;;;;;;1.90;1.70;;;21.80;1.00;;;;;;5047228;28;20410;-83
2023/09/13 09:56:15;;;;;;;1.75;1.60;;;21.80;1.00;;;;;;5032215;28;20397;-85
2023/09/13 09:58:41;;;;;;;2.53;1.58;;;22.40;1.00;;;;;;5020792;28;20399;-84
2023/09/13 10:01:07;;;;;;;1.60;1.50;;;22.00;1.00;;;;;;5037122;28;20768;-85
2023/09/13 10:03:34;;;;;;;2.35;2.00;;;21.90;1.00;;;;;;5036655;28;20392;-85
2023/09/13 10:06:06;;;;;;;1.60;1.50;;;22.00;1.00;;;;;;5036946;28;20487;-85
2023/09/13 10:08:48;;;;;;;1.70;1.60;;;21.20;1.00;;;;;;5036167;28;20607;-85
2023/09/13 10:11:24;;;;;;;2.10;1.50;;;21.90;1.00;;;;;;5014261;28;20405;-85
2023/09/13 10:13:49;;;;;;;1.92;1.70;;;21.90;1.00;;;;;;5018454;28;20435;-84
2023/09/13 10:16:16;;;;;;;2.30;1.40;;;21.50;1.00;;;;;;5015449;28;20419;-85
2023/09/13 10:18:50;;;;;;;2.90;1.50;;;21.50;1.00;;;;;;5016621;28;20956;-84
2023/09/13 10:21:26;;;;;;;1.70;1.52;;;21.90;1.00;;;;;;5017417;28;20943;-84
2023/09/13 10:24:06;;;;;;;1.75;1.30;;;21.20;1.00;;;;;;5015638;28;20424;-84
2023/09/13 10:26:35;;;;;;;2.38;1.70;;;22.00;1.00;;;;;;5016132;28;20491;-84
2023/09/13 10:29:29;;;;;;;1.70;1.50;;;22.00;1.00;;;;;;5015668;28;20381;-86
2023/09/13 10:32:00;;;;;;;2.42;2.08;;;22.00;1.00;;;;;;5031306;28;20418;-83
2023/09/13 10:34:27;;;;;;;2.50;2.03;;;21.90;1.00;;;;;;5037907;28;20383;-84
2023/09/13 10:37:03;;;;;;;2.60;1.60;;;21.40;1.00;;;;;;5046661;28;20385;-86
2023/09/13 10:39:42;;;;;;;2.45;2.00;;;21.70;1.00;;;;;;5055091;28;20399;-85
2023/09/13 10:42:10;;;;;;;2.45;1.90;;;20.60;1.00;;;;;;5021476;28;20523;-85
2023/09/13 10:44:37;;;;;;;2.67;1.80;;;20.80;1.00;;;;;;5012943;28;20380;-83
2023/09/13 10:47:07;;;;;;;1.92;1.80;;;20.90;1.00;;;;;;5013005;28;20424;-85
2023/09/13 10:49:35;;;;;;;2.00;1.80;;;21.60;1.00;;;;;;5013345;28;20399;-85
2023/09/13 10:52:02;;;;;;;2.60;2.10;;;21.70;1.00;;;;;;5012348;28;20393;-84
2023/09/13 10:54:30;;;;;;;2.72;2.10;;;21.70;1.00;;;;;;5012799;28;20961;-85
2023/09/13 10:56:56;;;;;;;1.80;1.70;;;21.80;1.00;;;;;;5012699;28;20385;-85
2023/09/13 10:59:23;;;;;;;2.47;1.92;;;23.10;1.00;;;;;;5012123;28;20399;-85
2023/09/13 11:01:49;;;;;;;2.13;1.90;;;21.90;1.00;;;;;;5035432;28;20406;-83
2023/09/13 11:04:23;;;;;;;2.00;1.80;;;22.00;1.00;;;;;;5033698;28;20391;-83
2023/09/13 11:06:53;;;;;;;4.55;1.88;;;21.90;1.00;;;;;;5033134;28;20518;-84
2023/09/13 11:09:26;;;;;;;2.28;2.08;;;21.50;1.00;;;;;;5036725;28;20493;-84
2023/09/13 11:11:52;;;;;;;2.20;2.00;;;23.80;1.00;;;;;;5032546;28;20418;-84
2023/09/13 11:14:26;;;;;;;2.58;1.70;;;22.70;1.00;;;;;;5032421;28;20391;-84
2023/09/13 11:16:52;;;;;;;2.55;1.88;;;22.40;1.00;;;;;;5033114;28;20390;-83
2023/09/13 11:19:18;;;;;;;2.22;1.85;;;22.50;1.00;;;;;;5031578;28;20390;-83
2023/09/13 11:21:49;;;;;;;2.38;1.65;;;21.80;1.00;;;;;;5013063;28;20919;-84
2023/09/13 11:24:37;;;;;;;1.73;1.63;;;22.20;1.00;;;;;;5012498;28;20396;-83
2023/09/13 11:27:16;;;;;;;1.90;1.67;;;22.30;1.00;;;;;;5013303;28;20528;-85
2023/09/13 11:29:47;;;;;;;2.80;2.00;;;22.40;1.00;;;;;;5011988;28;20428;-83
2023/09/13 11:32:20;;;;;;;1.80;1.70;;;22.00;1.00;;;;;;5012988;28;20415;-84
2023/09/13 11:34:54;;;;;;;2.70;1.80;;;22.60;1.00;;;;;;5011967;28;20447;-83
2023/09/13 11:37:22;;;;;;;2.47;2.05;;;22.70;1.00;;;;;;5013047;28;20484;-84
2023/09/13 11:39:54;;;;;;;2.30;2.00;;;22.10;1.00;;;;;;5016450;28;20423;-81
2023/09/13 11:42:30;;;;;;;2.20;1.70;;;22.90;1.00;;;;;;5020955;28;20438;-82
2023/09/13 11:44:57;;;;;;;2.23;1.90;;;23.00;1.00;;;;;;5024285;28;20399;-82
2023/09/13 11:47:23;;;;;;;2.90;2.30;;;23.10;1.00;;;;;;5037283;28;20435;-82
2023/09/13 11:49:55;;;;;;;2.10;1.90;;;22.20;1.00;;;;;;5037333;28;20448;-82
2023/09/13 11:52:22;;;;;;;3.78;3.00;;;22.20;1.00;;;;;;5034949;28;20416;-82
2023/09/13 11:55:00;;;;;;;3.30;2.30;;;22.20;1.00;;;;;;5033109;28;20472;-82
2023/09/13 11:57:48;;;;;;;2.75;2.55;;;23.50;1.00;;;;;;5028518;28;20388;-82
2023/09/13 12:00:14;;;;;;;2.42;2.22;;;22.00;1.00;;;;;;5026632;28;20383;-82
2023/09/13 12:02:43;;;;;;;4.63;2.38;;;21.80;1.00;;;;;;5019921;28;20400;-82
2023/09/13 12:05:09;;;;;;;2.90;2.60;;;21.80;1.00;;;;;;5022681;28;20453;-83
2023/09/13 12:07:36;;;;;;;3.40;3.07;;;21.80;1.00;;;;;;5038358;28;20903;-83
2023/09/13 12:10:01;;;;;;;6.80;3.28;;;21.90;1.00;;;;;;5037395;28;20395;-82
2023/09/13 12:12:27;;;;;;;2.92;2.63;;;21.40;1.00;;;;;;5035511;28;20530;-82
2023/09/13 12:14:52;;;;;;;2.70;2.50;;;21.80;1.00;;;;;;5032548;28;20383;-82
2023/09/13 12:17:19;;;;;;;3.10;2.30;;;21.90;1.00;;;;;;5017183;28;20391;-83
2023/09/13 12:19:46;;;;;;;3.22;2.53;;;21.10;1.00;;;;;;5022316;28;20394;-82
2023/09/13 12:22:16;;;;;;;4.45;2.80;;;20.80;1.00;;;;;;5014806;28;20388;-83
2023/09/13 12:24:52;;;;;;;2.75;2.55;;;20.10;1.00;;;;;;5028971;28;20408;-84
2023/09/13 12:27:17;;;;;;;2.70;2.50;;;19.70;1.00;;;;;;5011529;28;20412;-81
2023/09/13 12:29:47;;;;;;;2.83;2.63;;;19.30;1.00;;;;;;5013281;28;20389;-82
2023/09/13 12:32:16;;;;;;;3.15;2.90;;;19.10;1.00;;;;;;5012786;28;20478;-83
2023/09/13 12:34:42;;;;;;;3.00;2.80;;;19.20;1.00;;;;;;5024927;28;20381;-82
2023/09/13 12:37:07;;;;;;;2.70;2.50;;;19.10;1.00;;;;;;5032098;28;20401;-81
2023/09/13 12:39:33;;;;;;;2.97;2.67;;;19.10;1.00;;;;;;5044590;28;20466;-81
2023/09/13 12:41:58;;;;;;;3.00;2.80;;;18.40;1.00;;;;;;5040995;28;20385;-82
2023/09/13 12:44:24;;;;;;;2.72;2.53;;;18.80;1.00;;;;;;5041216;28;20403;-81
2023/09/13 12:46:51;;;;;;;4.03;2.57;;;19.10;1.00;;;;;;5028029;28;20781;-82
2023/09/13 12:49:17;;;;;;;3.45;3.00;;;18.80;1.00;;;;;;5011330;28;20397;-82
2023/09/13 12:51:43;;;;;;;3.67;3.07;;;19.00;1.00;;;;;;5013167;28;20752;-82
2023/09/13 12:54:12;;;;;;;3.50;3.20;;;19.40;1.00;;;;;;5022905;28;20469;-82
2023/09/13 12:56:39;;;;;;;3.60;3.30;;;19.50;1.00;;;;;;5043543;28;20439;-82
2023/09/13 12:59:06;;;;;;;3.50;3.20;;;19.50;1.00;;;;;;5040129;28;20772;-82
2023/09/13 13:01:33;;;;;;;3.85;3.55;;;19.40;1.00;;;;;;5038936;28;20387;-82
2023/09/13 13:04:12;;;;;;;4.18;3.78;;;19.80;1.00;;;;;;5035935;28;20450;-83